Airfield :
LOGIN :

Register | Disclaimer

   EN    FR    IT 

 










Legend :    VFR   Marginal VFR   IFR   Intensive IFR   Very Intensive IFR
Visi :
Ceiling :
>= 8 km
>= 3000ft
5 to 8 km
1000 to 3000 ft
1500m to 5 km
500 to 1000 ft
800 to 1500m
200 to 500 ft
< 800m
< 200 ft
Symbols :   Thunderstorms  Fog  Heavy snow  Heavy precipitations  Wind > 20 kt
SIGMETs :     Misc.  Thunderstorms  Icing  Turbulence  Mountain Waves  Volcanic Ashes






- Airport Elevation : 194 ft
- IATA code : LME


LFRM - Le Mans

CURRENT METAR :
  • 082000Z AUTO 24004KT 210V270 9999 -RA FEW026/// SCT034/// BKN050/// ///TCU 08/07 Q1010

EXPIRED METARs :
  • 081930Z AUTO 27009KT 240V310 9999 FEW013/// BKN047/// BKN060/// ///TCU 08/06 Q1011
  • 081900Z AUTO 28012KT 240V330 6000 -RA FEW014/// BKN022/// OVC040/// ///CB 08/06 Q1011 TEMPO 25020G40KT 2500 SHRAGS BECMG NSC
  • 081830Z AUTO 25011KT 210V320 9999 -RA SCT027/// BKN036/// BKN042/// ///CB 11/07 Q1010 TEMPO 25020G40KT 2500 SHRAGS BECMG NSC
  • 081800Z AUTO 23013KT 190V290 9999 FEW027/// SCT049/// BKN058/// ///CB 11/07 Q1010 TEMPO 25020G40KT 2500 SHRAGS BKN006 BKN020CB
  • 081730Z AUTO 22011KT 180V250 9999 SCT043/// OVC054/// ///TCU 11/07 Q1010 TEMPO 25020G40KT 2500 SHRAGS BKN006 BKN020CB

TAF TAF LFRM
Valid from the 08 at 12:00 until the 09 at 12:00 UTC


081100Z 0812/0912 27010KT 9999 NSC
TEMPO 0812/0813 6000 OVC005
TEMPO 0816/0818 25015G25KT
TEMPO 0818/0820 25020G40KT 2500 SHRAGS BKN006 BKN020CB
TEMPO 0901/0912 4500 -SHRA BKN020TCU SCT025CB
BECMG 0910/0912 33015G25KT



MET'MAP, your aeronautical weather chart ! - Copyright ORBIFLY December 2007 - Disclaimer

ORBIFLY MET'MAP TEAM :

Programming & Development : Alexandra Zaïnal
Concept & original design : Baudouin d'Aumeries
Assistance for programming : Marc-Olivier Méhu
Technical & hardware support : Manuel Goepfert

Contact : metmap@orbifly.com




SOURCES & CREDITS :

   NOAA